Time;durP1;ratioP1;P1;durP2;ratioP2;P2;SDS_P1;SDS_P2;PMS_P1;PMS_P2;Temp;Humidity;BMP_temperature;BMP_pressure;BME280_temperature;BME280_humidity;BME280_pressure;Samples;Min_cycle;Max_cycle;Signal;HPM_P1;HPM_P2
2022/07/23 00:01:32;;;;;;;8.38;5.30;;;;;;;-144.47;56.38;53148.06;4994017;28;20106;-64
2022/07/23 00:03:58;;;;;;;12.02;5.50;;;;;;;-144.47;56.40;53199.72;4988705;28;20447;-63
2022/07/23 00:06:24;;;;;;;9.27;5.07;;;;;;;-144.47;56.41;53197.72;4990196;28;20015;-61
2022/07/23 00:08:50;;;;;;;13.48;5.72;;;;;;;-144.47;56.44;53219.56;4993312;28;20104;-60
2022/07/23 00:11:15;;;;;;;10.45;5.32;;;;;;;-144.47;56.39;53195.75;4992909;28;20586;-66
2022/07/23 00:13:41;;;;;;;10.63;5.22;;;;;;;-144.47;56.39;53175.88;4992252;28;20145;-65
2022/07/23 00:16:06;;;;;;;10.48;5.32;;;;;;;-144.47;56.49;53229.50;4996213;28;20030;-63
2022/07/23 00:18:32;;;;;;;10.57;5.32;;;;;;;-144.47;56.56;53233.47;4990829;28;20026;-64
2022/07/23 00:20:57;;;;;;;10.95;5.22;;;;;;;-144.47;56.56;53183.81;4993036;28;20387;-64
2022/07/23 00:23:24;;;;;;;9.45;5.25;;;;;;;-144.47;56.68;53219.56;4987203;28;20021;-62
2022/07/23 00:25:50;;;;;;;9.80;5.35;;;;;;;-144.47;56.72;53211.63;4992160;28;20023;-63
2022/07/23 00:28:15;;;;;;;12.43;5.93;;;;;;;-144.47;57.00;53229.50;4994318;28;20020;-64
2022/07/23 00:30:40;;;;;;;8.88;5.60;;;;;;;-144.47;56.86;53203.69;4992757;28;20375;-64
2022/07/23 00:33:07;;;;;;;11.80;5.70;;;;;;;-144.47;56.92;53205.66;4993788;28;20503;-63
2022/07/23 00:35:40;;;;;;;8.05;5.45;;;;;;;-144.47;56.85;53209.66;4993462;28;20385;-64
2022/07/23 00:38:06;;;;;;;10.30;5.88;;;;;;;-144.47;56.71;53201.69;4994684;28;20050;-63
2022/07/23 00:40:32;;;;;;;9.60;5.95;;;;;;;-144.47;56.95;53203.69;4995845;28;20531;-63
2022/07/23 00:42:59;;;;;;;12.43;6.05;;;;;;;-144.47;56.84;53225.53;4997053;28;20050;-62
2022/07/23 00:45:25;;;;;;;11.57;5.70;;;;;;;-144.47;56.88;53201.69;4996731;28;20391;-64
2022/07/23 00:47:50;;;;;;;8.18;5.57;;;;;;;-144.47;57.00;53185.81;4995993;28;20025;-62
2022/07/23 00:50:16;;;;;;;8.57;5.32;;;;;;;-144.47;56.73;53193.75;5008713;28;20113;-64
2022/07/23 00:52:41;;;;;;;8.70;5.55;;;;;;;-144.47;56.91;53189.78;5009964;28;20052;-63
2022/07/23 00:55:09;;;;;;;9.63;5.68;;;;;;;-144.47;56.87;53201.69;4991545;28;20464;-62
2022/07/23 00:57:35;;;;;;;11.23;5.15;;;;;;;-144.47;57.03;53211.63;5003432;28;20487;-64
2022/07/23 01:00:02;;;;;;;7.78;5.10;;;;;;;-144.47;57.04;53215.59;4993559;28;20037;-64
2022/07/23 01:02:27;;;;;;;11.35;5.43;;;;;;;-144.47;57.36;53181.84;4990707;28;20025;-62
2022/07/23 01:04:53;;;;;;;9.00;5.30;;;;;;;-144.47;57.41;53211.63;4992358;28;20022;-65
2022/07/23 01:07:19;;;;;;;9.43;5.53;;;;;;;-144.47;57.41;53201.69;4989344;28;20045;-63
2022/07/23 01:09:45;;;;;;;11.07;6.30;;;;;;;-144.47;57.67;53185.81;4992738;28;20113;-64
2022/07/23 01:12:11;;;;;;;11.68;6.20;;;;;;;-144.47;57.64;53177.88;4992202;28;20014;-64
2022/07/23 01:14:37;;;;;;;8.93;5.70;;;;;;;-144.47;57.77;53201.69;4991113;28;20102;-62
2022/07/23 01:17:03;;;;;;;9.43;5.38;;;;;;;-144.47;57.79;53211.63;4990551;28;20444;-64
2022/07/23 01:19:28;;;;;;;9.00;5.55;;;;;;;-144.47;57.66;53130.19;4992778;28;20045;-64
2022/07/23 01:21:57;;;;;;;9.48;5.53;;;;;;;-144.47;57.60;53227.53;4990768;28;20022;-64
2022/07/23 01:24:23;;;;;;;10.45;5.47;;;;;;;-144.47;57.59;53195.75;4991945;28;20025;-63
2022/07/23 01:26:50;;;;;;;10.65;5.43;;;;;;;-144.47;57.44;53183.81;4990235;28;20022;-63
2022/07/23 01:29:15;;;;;;;11.55;5.65;;;;;;;-144.47;57.30;53213.63;4992664;28;20018;-64
2022/07/23 01:31:41;;;;;;;9.20;5.57;;;;;;;-144.47;57.21;53217.59;4993270;28;20464;-63
2022/07/23 01:34:07;;;;;;;12.55;5.25;;;;;;;-144.47;57.29;53187.78;4992517;28;20073;-61
2022/07/23 01:36:34;;;;;;;16.17;5.75;;;;;;;-144.47;57.31;53171.91;4992794;28;20523;-62
2022/07/23 01:38:59;;;;;;;8.98;5.57;;;;;;;-144.47;57.24;53181.84;4994412;28;20097;-61
2022/07/23 01:41:24;;;;;;;12.95;5.60;;;;;;;-144.47;57.43;53181.84;4992231;28;20495;-63
2022/07/23 01:43:50;;;;;;;9.65;5.40;;;;;;;-144.47;57.54;53205.66;4990210;28;20046;-63
2022/07/23 01:46:15;;;;;;;9.10;5.13;;;;;;;-144.47;57.29;53201.69;4977768;28;20042;-64
2022/07/23 01:48:41;;;;;;;9.38;5.30;;;;;;;-144.47;57.25;53231.50;4998154;28;20033;-62
2022/07/23 01:51:07;;;;;;;9.10;5.63;;;;;;;-144.47;57.38;53173.88;4997643;28;20030;-62
2022/07/23 01:53:32;;;;;;;9.90;5.68;;;;;;;-144.47;57.69;53203.69;4997955;28;20057;-63
2022/07/23 01:55:58;;;;;;;8.18;5.10;;;;;;;-144.47;57.66;53237.44;5000441;28;20068;-64
2022/07/23 01:58:25;;;;;;;11.27;5.60;;;;;;;-144.47;57.76;53217.59;4999041;28;20613;-63
2022/07/23 02:00:50;;;;;;;13.70;6.45;;;;;;;-144.47;57.90;53225.53;5000853;28;20079;-63
2022/07/23 02:03:16;;;;;;;13.13;6.22;;;;;;;-144.47;58.08;53215.59;5000349;28;20109;-64
2022/07/23 02:05:41;;;;;;;10.70;5.93;;;;;;;-144.47;57.96;53215.59;4990043;28;20036;-64
2022/07/23 02:08:07;;;;;;;11.82;5.55;;;;;;;-144.47;58.05;53221.56;5003581;28;20480;-62
2022/07/23 02:10:33;;;;;;;8.88;5.03;;;;;;;-144.47;57.83;53233.47;4994445;28;20098;-64
2022/07/23 02:12:58;;;;;;;9.50;5.47;;;;;;;-144.47;57.79;53219.56;4995145;28;20018;-63
2022/07/23 02:15:23;;;;;;;9.63;5.43;;;;;;;-144.47;57.98;53243.41;5004120;28;20656;-63
2022/07/23 02:17:49;;;;;;;9.25;5.70;;;;;;;-144.47;57.92;53189.78;4993880;28;20021;-63
2022/07/23 02:20:15;;;;;;;11.30;5.65;;;;;;;-144.47;57.52;53211.63;5002944;28;20104;-63
2022/07/23 02:22:40;;;;;;;12.13;5.65;;;;;;;-144.47;57.19;53197.72;5001298;28;20025;-65
2022/07/23 02:25:07;;;;;;;9.48;5.50;;;;;;;-144.47;57.01;53231.50;4993281;28;20022;-63
2022/07/23 02:27:33;;;;;;;13.10;6.28;;;;;;;-144.47;57.25;53217.59;5002512;28;20124;-65
2022/07/23 02:29:58;;;;;;;14.20;5.85;;;;;;;-144.47;57.68;53201.69;4994665;28;20034;-63
2022/07/23 02:32:24;;;;;;;10.60;5.88;;;;;;;-144.47;58.21;53209.66;4999200;28;20379;-64
2022/07/23 02:34:50;;;;;;;9.77;5.90;;;;;;;-144.47;58.20;53211.63;4989983;28;20026;-66
2022/07/23 02:37:16;;;;;;;7.80;4.75;;;;;;;-144.47;58.11;53227.53;4997209;28;20033;-62
2022/07/23 02:39:41;;;;;;;10.98;5.45;;;;;;;-144.47;58.17;53215.59;4981107;28;20026;-65
2022/07/23 02:42:07;;;;;;;9.32;5.13;;;;;;;-144.47;58.28;53243.41;4998428;28;20018;-64
2022/07/23 02:44:32;;;;;;;10.07;5.43;;;;;;;-144.47;58.36;53203.69;4989848;28;20018;-64
2022/07/23 02:46:58;;;;;;;12.35;5.78;;;;;;;-144.47;58.14;53225.53;4994309;28;20033;-64
2022/07/23 02:49:23;;;;;;;10.48;5.80;;;;;;;-144.47;58.23;53185.81;5002708;28;20364;-63
2022/07/23 02:51:49;;;;;;;11.43;6.22;;;;;;;-144.47;57.89;53191.78;5000517;28;20019;-63
2022/07/23 02:54:14;;;;;;;17.00;6.32;;;;;;;-144.47;57.58;53185.81;4999350;28;20049;-63
2022/07/23 02:56:40;;;;;;;13.07;6.22;;;;;;;-144.47;57.82;53225.53;4994124;28;20022;-64
2022/07/23 02:59:05;;;;;;;13.05;6.30;;;;;;;-144.47;57.83;53189.78;5005844;28;20742;-61
2022/07/23 03:01:30;;;;;;;10.73;6.05;;;;;;;-144.47;57.96;53225.53;5005237;28;20021;-62
2022/07/23 03:03:56;;;;;;;10.75;6.63;;;;;;;-144.47;57.96;53201.69;5005304;28;20022;-63
2022/07/23 03:06:21;;;;;;;15.55;6.22;;;;;;;-144.47;57.96;53215.59;4998716;28;20500;-64
2022/07/23 03:08:47;;;;;;;13.65;5.75;;;;;;;-144.47;57.92;53205.66;4988559;28;20546;-62
2022/07/23 03:11:12;;;;;;;14.52;6.07;;;;;;;-144.47;58.02;53217.59;4989133;28;20022;-63
2022/07/23 03:13:38;;;;;;;17.77;6.35;;;;;;;-144.47;57.74;53211.63;4999506;28;20021;-65
2022/07/23 03:16:04;;;;;;;10.05;6.43;;;;;;;-144.47;57.98;53223.56;5004123;28;20545;-62
2022/07/23 03:18:30;;;;;;;13.98;6.70;;;;;;;-144.47;57.93;53233.47;5001111;28;20054;-64
2022/07/23 03:20:55;;;;;;;17.75;6.15;;;;;;;-144.47;57.99;53205.66;5004628;28;20048;-62
2022/07/23 03:23:21;;;;;;;10.52;5.50;;;;;;;-144.47;58.04;53217.59;5004418;28;20562;-63
2022/07/23 03:25:49;;;;;;;19.42;6.88;;;;;;;-144.47;57.88;53229.50;5003926;28;20018;-63
2022/07/23 03:28:18;;;;;;;24.40;7.43;;;;;;;-144.47;58.21;53245.41;5000403;28;20010;-62
2022/07/23 03:30:47;;;;;;;13.10;6.72;;;;;;;-144.47;58.20;53239.44;4996540;28;20049;-63
2022/07/23 03:33:17;;;;;;;12.85;6.75;;;;;;;-144.47;58.36;53247.38;4993952;28;20029;-63
2022/07/23 03:35:43;;;;;;;11.60;6.22;;;;;;;-144.47;58.42;53237.44;5011852;22;20523;-70
2022/07/23 03:38:09;;;;;;;14.07;6.53;;;;;;;-144.47;58.24;53185.81;4993062;28;20491;-70
2022/07/23 03:40:34;;;;;;;12.80;6.10;;;;;;;-144.47;58.26;53201.69;4994007;28;20030;-71
2022/07/23 03:42:59;;;;;;;12.20;6.00;;;;;;;-144.47;57.93;53241.44;5004854;28;20026;-68
2022/07/23 03:45:25;;;;;;;13.70;6.47;;;;;;;-144.47;57.85;53211.63;4989305;28;20030;-69
2022/07/23 03:47:50;;;;;;;11.30;6.15;;;;;;;-144.47;57.91;53233.47;4987389;28;20014;-70
2022/07/23 03:50:16;;;;;;;9.18;6.03;;;;;;;-144.47;57.56;53221.56;4992847;28;20494;-67
2022/07/23 03:52:41;;;;;;;7.65;5.18;;;;;;;-144.47;57.54;53217.59;4991480;28;20026;-69
2022/07/23 03:55:06;;;;;;;14.82;5.25;;;;;;;-144.47;57.51;53225.53;4992735;28;20438;-68
2022/07/23 03:57:32;;;;;;;10.13;5.45;;;;;;;-144.47;57.23;53203.69;4991000;28;20017;-69
2022/07/23 03:59:57;;;;;;;12.25;5.40;;;;;;;-144.47;57.51;53203.69;4992863;28;20165;-69
2022/07/23 04:02:23;;;;;;;10.75;5.65;;;;;;;-144.47;57.34;53201.69;4992786;28;20026;-68
2022/07/23 04:04:48;;;;;;;9.63;5.78;;;;;;;-144.47;57.14;53229.50;4992660;28;20025;-69
2022/07/23 04:07:14;;;;;;;16.45;5.93;;;;;;;-144.47;57.23;53211.63;4989293;28;20117;-70
2022/07/23 04:09:42;;;;;;;12.98;5.68;;;;;;;-144.47;57.74;53213.63;4992063;28;20464;-69
2022/07/23 04:12:07;;;;;;;12.90;5.00;;;;;;;-144.47;57.66;53205.66;4991405;28;20053;-70
2022/07/23 04:14:33;;;;;;;10.00;5.32;;;;;;;-144.47;58.04;53239.44;4992237;28;20640;-70
2022/07/23 04:16:59;;;;;;;12.68;5.90;;;;;;;-144.47;58.50;53193.75;4991227;28;20026;-67
2022/07/23 04:19:24;;;;;;;12.43;6.25;;;;;;;-144.47;58.80;53225.53;4992460;28;20423;-69
2022/07/23 04:21:50;;;;;;;12.43;6.07;;;;;;;-144.47;58.80;53195.75;4990185;28;20463;-72
2022/07/23 04:24:15;;;;;;;11.27;6.25;;;;;;;-144.47;58.74;53233.47;4991374;28;20022;-68
2022/07/23 04:26:40;;;;;;;11.85;6.93;;;;;;;-144.47;58.48;53229.50;4990197;28;20815;-70
2022/07/23 04:29:06;;;;;;;11.75;5.70;;;;;;;-144.47;58.35;53231.50;4991548;28;20495;-71
2022/07/23 04:31:31;;;;;;;13.30;5.75;;;;;;;-144.47;58.06;53189.78;4991969;28;20051;-69
2022/07/23 04:33:56;;;;;;;12.93;5.20;;;;;;;-144.47;58.01;53243.41;4991995;28;20424;-70
2022/07/23 04:36:22;;;;;;;14.68;5.75;;;;;;;-144.47;57.68;53217.59;4991028;28;20579;-69
2022/07/23 04:38:47;;;;;;;15.95;5.63;;;;;;;-144.47;57.92;53201.69;4989020;28;20030;-66
2022/07/23 04:41:12;;;;;;;17.13;5.75;;;;;;;-144.47;59.07;53251.34;4991735;28;20037;-71
2022/07/23 04:43:38;;;;;;;17.35;7.25;;;;;;;-144.47;61.29;53221.56;4989700;28;20116;-67
2022/07/23 04:46:03;;;;;;;25.35;8.00;;;;;;;-144.47;61.97;53201.69;4992018;28;20050;-66
2022/07/23 04:48:29;;;;;;;20.48;6.47;;;;;;;-144.47;63.35;53243.41;4991278;28;20172;-68
2022/07/23 04:50:54;;;;;;;15.52;6.18;;;;;;;-144.47;63.68;53241.44;4991591;28;20018;-69
2022/07/23 04:53:19;;;;;;;12.23;6.20;;;;;;;-144.47;65.20;53231.50;4991009;28;20075;-70
2022/07/23 04:55:45;;;;;;;19.40;6.85;;;;;;;-144.47;65.63;53243.41;4991198;28;20023;-69
2022/07/23 04:58:10;;;;;;;15.85;6.90;;;;;;;-144.47;65.87;53253.34;4990094;28;20144;-69
2022/07/23 05:00:36;;;;;;;12.93;7.00;;;;;;;-144.47;65.07;53235.47;4990015;28;20030;-70
2022/07/23 05:03:01;;;;;;;12.82;7.15;;;;;;;-144.47;65.50;53231.50;4991500;28;20034;-71
2022/07/23 05:05:26;;;;;;;13.55;6.72;;;;;;;-144.47;65.18;53261.28;4990933;28;20042;-66
2022/07/23 05:07:52;;;;;;;16.83;6.68;;;;;;;-144.47;64.31;53201.69;4989557;28;20030;-71
2022/07/23 05:10:17;;;;;;;15.98;6.75;;;;;;;-144.47;64.71;53205.66;4990171;28;20049;-70
2022/07/23 05:12:42;;;;;;;18.42;7.95;;;;;;;-144.47;66.43;53285.13;4990795;28;20018;-69
2022/07/23 05:15:08;;;;;;;15.77;7.97;;;;;;;-144.47;66.07;53245.41;4991387;28;20200;-70
2022/07/23 05:17:33;;;;;;;16.83;6.85;;;;;;;-144.47;65.86;53277.19;4987823;28;20428;-70
2022/07/23 05:19:59;;;;;;;23.48;7.13;;;;;;;-144.47;67.38;53251.34;4991094;28;20026;-71
2022/07/23 05:22:24;;;;;;;13.13;7.88;;;;;;;-144.47;68.56;53241.44;4990040;28;20030;-70
2022/07/23 05:24:49;;;;;;;17.30;8.27;;;;;;;-144.47;70.39;53269.22;4991287;28;20381;-69
2022/07/23 05:27:15;;;;;;;12.15;8.02;;;;;;;-144.47;71.61;53283.13;4989151;28;20383;-70
2022/07/23 05:29:40;;;;;;;19.35;9.02;;;;;;;-144.47;71.54;53306.97;4991187;28;20025;-72
2022/07/23 05:32:05;;;;;;;15.15;7.72;;;;;;;-144.47;70.94;53269.22;4990767;28;20026;-66
2022/07/23 05:34:31;;;;;;;15.15;7.80;;;;;;;-144.47;69.92;53229.50;4990290;28;20041;-68
2022/07/23 05:36:56;;;;;;;16.27;7.82;;;;;;;-144.47;69.99;53285.13;4990080;28;20026;-71
2022/07/23 05:39:21;;;;;;;21.10;8.55;;;;;;;-144.47;70.71;53287.13;4989258;28;20042;-69
2022/07/23 05:41:47;;;;;;;16.40;7.57;;;;;;;-144.47;70.87;53287.13;4989383;28;20038;-72
2022/07/23 05:44:12;;;;;;;14.52;7.68;;;;;;;-144.47;71.09;53295.06;4990422;28;20487;-70
2022/07/23 05:46:38;;;;;;;17.80;8.43;;;;;;;-144.47;70.51;53253.34;4989919;28;20487;-73
2022/07/23 05:49:03;;;;;;;18.35;7.85;;;;;;;-144.47;70.17;53289.09;4990657;28;20591;-71
2022/07/23 05:51:29;;;;;;;20.80;8.73;;;;;;;-144.47;70.37;53285.13;4989900;28;20061;-69
2022/07/23 05:53:54;;;;;;;15.95;7.30;;;;;;;-144.47;69.95;53253.34;4989762;28;20022;-68
2022/07/23 05:56:20;;;;;;;16.85;7.05;;;;;;;-144.47;69.24;53273.22;4983168;28;20025;-68
2022/07/23 05:58:45;;;;;;;14.18;7.03;;;;;;;-144.47;69.73;53253.34;4976241;28;20030;-69
2022/07/23 06:01:11;;;;;;;15.88;7.68;;;;;;;-144.47;69.96;53261.28;4982927;28;20086;-69
2022/07/23 06:03:37;;;;;;;14.90;6.80;;;;;;;-144.47;69.89;53235.47;4987743;28;20546;-70
2022/07/23 06:06:03;;;;;;;17.08;7.38;;;;;;;-144.47;69.21;53261.28;4984567;28;20094;-71
2022/07/23 06:08:29;;;;;;;16.75;7.30;;;;;;;-144.47;70.06;53305.00;4984956;28;20421;-70
2022/07/23 06:10:54;;;;;;;16.58;7.82;;;;;;;-144.47;69.20;53273.22;4990050;28;20026;-68
2022/07/23 06:13:20;;;;;;;14.68;6.82;;;;;;;-144.47;68.13;53271.22;4989185;28;20025;-67
2022/07/23 06:15:45;;;;;;;17.17;6.55;;;;;;;-144.47;68.21;53257.31;4989969;28;20034;-70
2022/07/23 06:18:10;;;;;;;16.95;7.10;;;;;;;-144.47;68.12;53293.06;4987005;28;20023;-74
2022/07/23 06:20:36;;;;;;;18.40;6.90;;;;;;;-144.47;67.89;53227.53;4986483;28;20101;-71
2022/07/23 06:23:01;;;;;;;10.65;6.72;;;;;;;-144.47;67.78;53253.34;4987484;28;20026;-69
2022/07/23 06:25:27;;;;;;;15.23;6.53;;;;;;;-144.47;67.52;53293.06;4986607;28;20050;-68
2022/07/23 06:27:52;;;;;;;18.30;7.93;;;;;;;-144.47;67.18;53249.38;4982719;28;20117;-69
2022/07/23 06:30:18;;;;;;;13.57;6.55;;;;;;;-144.47;66.80;53269.22;4982301;28;20372;-71
2022/07/23 06:32:47;;;;;;;16.17;6.82;;;;;;;-144.47;66.36;53285.13;4986494;28;21473;-71
2022/07/23 06:35:12;;;;;;;16.05;6.85;;;;;;;-144.47;66.86;53249.38;4996994;28;20048;-71
2022/07/23 06:37:38;;;;;;;17.80;7.10;;;;;;;-144.47;65.84;53239.44;4987761;28;20464;-70
2022/07/23 06:40:03;;;;;;;15.65;7.07;;;;;;;-144.47;65.37;53269.22;4983691;28;20030;-66
2022/07/23 06:42:29;;;;;;;13.60;6.85;;;;;;;-144.47;64.80;53257.31;4987459;28;20049;-69
2022/07/23 06:44:54;;;;;;;13.30;6.38;;;;;;;-144.47;64.42;53229.50;4983140;28;20029;-71
2022/07/23 06:47:19;;;;;;;15.90;7.57;;;;;;;-144.47;65.62;53269.22;4987784;28;20022;-69
2022/07/23 06:49:45;;;;;;;17.30;7.32;;;;;;;-144.47;65.50;53227.53;4987670;28;20022;-71
2022/07/23 06:52:10;;;;;;;14.63;7.75;;;;;;;-144.47;64.98;53237.44;4988661;28;20032;-71
2022/07/23 06:54:35;;;;;;;24.30;8.23;;;;;;;-144.47;63.73;53275.19;4989272;28;20068;-71
2022/07/23 06:57:01;;;;;;;21.98;7.40;;;;;;;-144.47;64.06;53241.44;4986396;28;20495;-71
2022/07/23 06:59:26;;;;;;;18.55;7.22;;;;;;;-144.47;63.67;53267.25;4987150;28;20559;-69
2022/07/23 07:01:52;;;;;;;17.35;7.72;;;;;;;-144.47;63.05;53261.28;4986009;28;20488;-68
2022/07/23 07:04:17;;;;;;;19.27;7.53;;;;;;;-144.47;64.47;53273.22;4988521;28;20042;-66
2022/07/23 07:06:42;;;;;;;19.13;8.20;;;;;;;-144.47;64.42;53219.56;4988386;28;20098;-68
2022/07/23 07:09:08;;;;;;;18.25;8.23;;;;;;;-144.47;63.52;53233.47;4988418;28;20061;-68
2022/07/23 07:11:33;;;;;;;13.75;7.57;;;;;;;-144.47;62.78;53245.41;4988644;28;20112;-69
2022/07/23 07:13:58;;;;;;;20.20;8.43;;;;;;;-144.47;61.86;53223.56;4988986;28;20097;-67
2022/07/23 07:16:24;;;;;;;15.68;7.90;;;;;;;-144.47;62.51;53223.56;4983896;28;20084;-67
2022/07/23 07:18:49;;;;;;;17.90;8.48;;;;;;;-144.47;62.96;53231.50;4983685;28;20488;-67
2022/07/23 07:21:14;;;;;;;18.35;8.00;;;;;;;-144.47;62.69;53189.78;4981976;28;20022;-68
2022/07/23 07:23:40;;;;;;;19.08;8.40;;;;;;;-144.47;61.66;53223.56;4984133;28;20447;-69
2022/07/23 07:26:05;;;;;;;15.48;8.30;;;;;;;-144.47;61.90;53257.31;4985646;28;20038;-68
2022/07/23 07:28:31;;;;;;;15.00;7.35;;;;;;;-144.47;61.88;53233.47;4986405;28;20154;-66
2022/07/23 07:30:56;;;;;;;20.02;8.02;;;;;;;-144.47;62.12;53269.22;4984995;28;20092;-68
2022/07/23 07:33:22;;;;;;;21.25;8.73;;;;;;;-144.47;61.76;53253.34;4986801;28;20427;-65
2022/07/23 07:35:47;;;;;;;16.52;8.13;;;;;;;-144.47;62.38;53221.56;4993159;28;20109;-69
2022/07/23 07:38:12;;;;;;;19.55;8.68;;;;;;;-144.47;62.06;53237.44;4991437;28;20468;-68
2022/07/23 07:40:38;;;;;;;19.90;9.45;;;;;;;-144.47;62.03;53237.44;4993106;28;20026;-69
2022/07/23 07:43:03;;;;;;;18.63;8.65;;;;;;;-144.47;62.23;53221.56;4991918;28;20022;-67
2022/07/23 07:45:29;;;;;;;14.95;8.65;;;;;;;-144.47;62.29;53233.47;4992651;28;20529;-68
2022/07/23 07:47:54;;;;;;;21.13;9.68;;;;;;;-144.47;62.40;53235.47;4992211;28;20053;-68
2022/07/23 07:50:20;;;;;;;18.80;8.75;;;;;;;-144.47;62.90;53201.69;4992806;28;20056;-66
2022/07/23 07:52:46;;;;;;;20.40;10.10;;;;;;;-144.47;63.14;53225.53;4991608;28;20471;-67
2022/07/23 07:55:12;;;;;;;25.52;12.00;;;;;;;-144.47;63.46;53237.44;4987284;28;20030;-69
2022/07/23 07:57:38;;;;;;;18.92;10.73;;;;;;;-144.47;63.62;53227.53;4981079;28;20537;-68
2022/07/23 08:00:06;;;;;;;22.58;14.05;;;;;;;-144.47;63.63;53257.31;4986186;28;20030;-67
2022/07/23 08:02:53;;;;;;;24.63;13.05;;;;;;;-144.47;63.84;53241.44;4986042;28;20034;-69
2022/07/23 08:05:23;;;;;;;28.15;13.35;;;;;;;-144.47;63.61;53225.53;4982516;28;20032;-66
2022/07/23 08:07:48;;;;;;;23.90;12.65;;;;;;;-144.47;63.89;53251.34;4981414;28;20384;-67
2022/07/23 08:10:14;;;;;;;23.00;12.13;;;;;;;-144.47;63.86;53277.19;4985816;28;20026;-67
2022/07/23 08:12:48;;;;;;;24.00;12.05;;;;;;;-144.47;62.41;53241.44;5005446;28;20025;-68
2022/07/23 08:15:16;;;;;;;22.40;11.73;;;;;;;-144.47;61.95;53273.22;4984856;28;20022;-67
2022/07/23 08:17:43;;;;;;;21.52;11.07;;;;;;;-144.47;60.87;53237.44;4983856;28;20045;-69
2022/07/23 08:20:10;;;;;;;22.20;11.85;;;;;;;-144.47;59.70;53209.66;4985183;28;20110;-69
2022/07/23 08:23:12;;;;;;;25.90;11.90;;;;;;;-144.47;59.05;53243.41;4983936;28;20030;-66
2022/07/23 08:25:41;;;;;;;21.67;10.73;;;;;;;-144.47;58.92;53233.47;4983847;28;20408;-68
2022/07/23 08:28:09;;;;;;;21.58;10.95;;;;;;;-144.47;58.53;53261.28;4982124;28;20015;-70
2022/07/23 08:30:35;;;;;;;25.33;13.40;;;;;;;-144.47;58.88;53221.56;4985811;28;20034;-70
2022/07/23 08:33:13;;;;;;;21.55;12.85;;;;;;;-144.47;59.56;53195.75;4985077;28;20495;-68
2022/07/23 08:35:41;;;;;;;28.80;14.13;;;;;;;-144.47;59.88;53257.31;4984475;28;20022;-68
2022/07/23 08:38:08;;;;;;;30.08;15.13;;;;;;;-144.47;60.16;53269.22;4982124;28;20054;-70
2022/07/23 08:40:38;;;;;;;32.58;16.33;;;;;;;-144.47;60.90;53195.75;4983882;28;20045;-69
2022/07/23 08:43:13;;;;;;;27.38;15.27;;;;;;;-144.47;60.49;53245.41;4985113;28;20153;-69
2022/07/23 08:45:45;;;;;;;31.30;16.63;;;;;;;-144.47;61.07;53259.31;4984703;28;20109;-69
2022/07/23 08:48:14;;;;;;;25.90;15.48;;;;;;;-144.47;61.29;53271.22;4982933;28;20092;-66
2022/07/23 08:50:47;;;;;;;29.20;16.08;;;;;;;-144.47;61.26;53251.34;4985275;28;20072;-69
2022/07/23 08:53:12;;;;;;;23.58;13.43;;;;;;;-144.47;60.56;53207.66;4984238;28;20089;-69
2022/07/23 08:55:38;;;;;;;34.03;14.88;;;;;;;-144.47;61.02;53261.28;4985063;28;20030;-69
2022/07/23 08:58:03;;;;;;;30.00;13.02;;;;;;;-144.47;60.82;53221.56;4982400;28;20085;-66
2022/07/23 09:00:29;;;;;;;27.63;13.90;;;;;;;-144.47;59.52;53229.50;4985231;28;20084;-72
2022/07/23 09:02:55;;;;;;;23.67;11.35;;;;;;;-144.47;58.54;53201.69;4982819;28;20113;-69
2022/07/23 09:05:21;;;;;;;23.67;12.57;;;;;;;-144.47;58.01;53239.44;4984310;28;20129;-66
2022/07/23 09:08:12;;;;;;;23.15;12.00;;;;;;;-144.47;58.54;53201.69;4981707;28;20034;-69
2022/07/23 09:10:58;;;;;;;27.40;13.05;;;;;;;-144.47;59.77;53245.41;4984842;28;20034;-69
2022/07/23 09:13:31;;;;;;;23.55;12.82;;;;;;;-144.47;60.08;53239.44;4984150;28;20546;-67
2022/07/23 09:16:10;;;;;;;28.40;13.52;;;;;;;-144.47;60.06;53225.53;4984683;28;20040;-69
2022/07/23 09:19:06;;;;;;;24.05;12.60;;;;;;;-144.47;59.08;53229.50;4981987;28;20022;-68
2022/07/23 09:21:32;;;;;;;23.33;12.55;;;;;;;-144.47;59.47;53227.53;4983915;28;20169;-67
2022/07/23 09:23:58;;;;;;;21.48;13.27;;;;;;;-144.47;60.05;53221.56;4983857;28;20127;-66
2022/07/23 09:26:26;;;;;;;27.10;12.02;;;;;;;-144.47;59.90;53271.22;4981995;28;20022;-68
2022/07/23 09:29:00;;;;;;;25.25;12.60;;;;;;;-144.47;60.40;53257.31;4983822;28;20105;-69
2022/07/23 09:31:34;;;;;;;31.30;13.60;;;;;;;-144.47;60.39;53215.59;4983907;28;20057;-69
2022/07/23 09:34:08;;;;;;;27.52;13.10;;;;;;;-144.47;59.38;53237.44;4983137;28;20420;-66
2022/07/23 09:36:33;;;;;;;27.55;13.00;;;;;;;-144.47;59.47;53217.59;4996332;23;20076;-64
2022/07/23 09:38:59;;;;;;;22.10;10.70;;;;;;;-144.47;59.42;53209.66;4970440;28;20647;-65
2022/07/23 09:41:24;;;;;;;30.83;12.30;;;;;;;-144.47;58.88;53229.50;4972913;28;20034;-65
2022/07/23 09:43:55;;;;;;;24.60;12.32;;;;;;;-144.47;58.65;53265.25;4977145;28;20098;-64
2022/07/23 09:46:24;;;;;;;28.08;11.68;;;;;;;-144.47;58.20;53235.47;4967013;28;20042;-67
2022/07/23 09:48:51;;;;;;;25.48;12.68;;;;;;;-144.47;57.71;53217.59;4974902;28;20030;-66
2022/07/23 09:54:02;;;;;;;22.55;12.45;;;;;;;-144.47;58.13;53237.44;4968373;28;20053;-67
2022/07/23 09:56:28;;;;;;;23.10;11.95;;;;;;;-144.47;57.98;53237.44;4973051;28;20762;-66
2022/07/23 09:59:04;;;;;;;23.17;12.75;;;;;;;-144.47;58.39;53211.63;4970380;28;20037;-67
2022/07/23 10:01:32;;;;;;;19.05;11.82;;;;;;;-144.47;58.07;53287.13;4973288;28;20536;-67
2022/07/23 10:03:58;;;;;;;32.75;13.27;;;;;;;-144.47;57.65;53213.63;4976497;28;20060;-66
2022/07/23 10:06:24;;;;;;;27.10;12.73;;;;;;;-144.47;58.38;53241.44;4973501;28;20627;-65
2022/07/23 10:08:52;;;;;;;24.35;12.25;;;;;;;-144.47;59.08;53267.25;4971773;28;20022;-66
2022/07/23 10:11:17;;;;;;;29.48;12.07;;;;;;;-144.47;58.73;53239.44;4971306;28;20611;-67
2022/07/23 10:16:11;;;;;;;37.03;15.38;;;;;;;-144.47;58.12;53233.47;4973854;28;20027;-64
2022/07/23 10:18:37;;;;;;;36.28;14.23;;;;;;;-144.47;59.16;53249.38;4974260;28;20045;-64
2022/07/23 10:21:07;;;;;;;31.50;15.77;;;;;;;-144.47;59.49;53223.56;4976538;28;20031;-64
2022/07/23 10:23:39;;;;;;;24.48;12.70;;;;;;;-144.47;59.08;53213.63;4971625;28;20126;-64
2022/07/23 10:26:16;;;;;;;22.80;13.45;;;;;;;-144.47;58.37;53221.56;4971988;28;20046;-63
2022/07/23 10:29:00;;;;;;;33.20;13.60;;;;;;;-144.47;58.81;53251.34;4971255;28;20377;-65
2022/07/23 10:31:46;;;;;;;31.05;14.75;;;;;;;-144.47;58.45;53251.34;4968533;28;20026;-64
2022/07/23 10:34:21;;;;;;;33.35;13.88;;;;;;;-144.47;58.42;53221.56;4964757;28;20618;-64
2022/07/23 10:36:55;;;;;;;28.23;14.63;;;;;;;-144.47;57.93;53253.34;4967345;28;20039;-64
2022/07/23 10:39:28;;;;;;;29.58;15.00;;;;;;;-144.47;58.65;53245.41;4976017;28;20014;-63
2022/07/23 10:42:08;;;;;;;40.35;16.80;;;;;;;-144.47;58.83;53213.63;4975388;28;20026;-64
2022/07/23 10:44:40;;;;;;;32.10;14.70;;;;;;;-144.47;57.84;53221.56;4969032;28;20097;-65
2022/07/23 10:49:33;;;;;;;28.42;16.15;;;;;;;-144.47;58.11;53227.53;4976447;28;20053;-65
2022/07/23 10:52:13;;;;;;;28.42;14.80;;;;;;;-144.47;57.64;53225.53;4969786;28;20038;-64
2022/07/23 10:54:48;;;;;;;31.45;16.25;;;;;;;-144.47;57.55;53253.34;4992652;28;20027;-63
2022/07/23 10:57:14;;;;;;;29.33;15.05;;;;;;;-144.47;57.16;53277.19;4962062;28;20046;-64
2022/07/23 11:02:31;;;;;;;32.72;17.25;;;;;;;-144.47;57.85;53205.66;4970640;28;20030;-66
2022/07/23 11:05:01;;;;;;;31.90;17.08;;;;;;;-144.47;58.11;53259.31;4975607;28;20030;-65
2022/07/23 11:07:26;;;;;;;33.72;18.45;;;;;;;-144.47;56.43;53203.69;4971057;28;20093;-64
2022/07/23 11:09:53;;;;;;;31.58;17.25;;;;;;;-144.47;56.71;53235.47;4979105;28;20656;-66
2022/07/23 11:12:18;;;;;;;32.20;17.20;;;;;;;-144.47;56.53;53251.34;4975839;28;20054;-66
2022/07/23 11:15:14;;;;;;;35.53;17.38;;;;;;;-144.47;56.69;53225.53;4976163;28;20476;-62
2022/07/23 11:17:43;;;;;;;34.22;16.38;;;;;;;-144.47;56.70;53247.38;4973448;28;20090;-64